sensor_id;sensor_type;location;lat;lon;timestamp;pressure;altitude;pressure_sealevel;temperature;humidity
26859;BME280;14429;48.346;16.338;2023-03-20T00:01:59;99867.91;;;11.65;44.64
26859;BME280;14429;48.346;16.338;2023-03-20T00:04:25;99857.19;;;11.16;47.03
26859;BME280;14429;48.346;16.338;2023-03-20T00:06:52;99859.94;;;11.53;45.06
26859;BME280;14429;48.346;16.338;2023-03-20T00:09:17;99862.16;;;11.71;44.52
26859;BME280;14429;48.346;16.338;2023-03-20T00:11:46;99865.34;;;11.88;44.06
26859;BME280;14429;48.346;16.338;2023-03-20T00:14:14;99866.50;;;11.96;43.90
26859;BME280;14429;48.346;16.338;2023-03-20T00:16:41;99855.47;;;12.01;43.74
26859;BME280;14429;48.346;16.338;2023-03-20T00:19:13;99855.06;;;11.94;43.75
26859;BME280;14429;48.346;16.338;2023-03-20T00:21:39;99863.84;;;11.35;46.67
26859;BME280;14429;48.346;16.338;2023-03-20T00:24:06;99864.44;;;10.37;50.12
26859;BME280;14429;48.346;16.338;2023-03-20T00:26:33;99865.16;;;10.53;49.08
26859;BME280;14429;48.346;16.338;2023-03-20T00:29:00;99864.75;;;10.33;49.30
26859;BME280;14429;48.346;16.338;2023-03-20T00:31:27;99860.47;;;10.95;46.78
26859;BME280;14429;48.346;16.338;2023-03-20T00:33:54;99870.53;;;11.28;45.69
26859;BME280;14429;48.346;16.338;2023-03-20T00:36:20;99858.41;;;11.61;44.91
26859;BME280;14429;48.346;16.338;2023-03-20T00:38:46;99864.50;;;11.75;44.49
26859;BME280;14429;48.346;16.338;2023-03-20T00:41:20;99852.75;;;11.65;44.50
26859;BME280;14429;48.346;16.338;2023-03-20T00:43:47;99852.00;;;11.76;44.19
26859;BME280;14429;48.346;16.338;2023-03-20T00:46:13;99853.28;;;11.70;44.38
26859;BME280;14429;48.346;16.338;2023-03-20T00:48:40;99857.97;;;11.79;44.26
26859;BME280;14429;48.346;16.338;2023-03-20T00:51:06;99855.41;;;11.90;43.90
26859;BME280;14429;48.346;16.338;2023-03-20T00:53:32;99852.94;;;11.99;43.63
26859;BME280;14429;48.346;16.338;2023-03-20T00:55:57;99841.38;;;11.99;43.73
26859;BME280;14429;48.346;16.338;2023-03-20T00:58:25;99849.53;;;11.85;43.55
26859;BME280;14429;48.346;16.338;2023-03-20T01:00:51;99846.41;;;11.91;43.72
26859;BME280;14429;48.346;16.338;2023-03-20T01:03:18;99849.97;;;11.42;45.42
26859;BME280;14429;48.346;16.338;2023-03-20T01:05:44;99850.22;;;11.52;44.76
26859;BME280;14429;48.346;16.338;2023-03-20T01:08:14;99851.38;;;11.85;43.96
26859;BME280;14429;48.346;16.338;2023-03-20T01:10:41;99848.53;;;11.98;43.55
26859;BME280;14429;48.346;16.338;2023-03-20T01:13:14;99839.44;;;12.01;43.47
26859;BME280;14429;48.346;16.338;2023-03-20T01:15:43;99846.72;;;11.99;43.67
26859;BME280;14429;48.346;16.338;2023-03-20T01:18:11;99848.53;;;12.11;43.34
26859;BME280;14429;48.346;16.338;2023-03-20T01:20:36;99848.44;;;12.00;43.25
26859;BME280;14429;48.346;16.338;2023-03-20T01:23:02;99851.41;;;12.08;43.36
26859;BME280;14429;48.346;16.338;2023-03-20T01:25:27;99853.13;;;12.09;43.31
26859;BME280;14429;48.346;16.338;2023-03-20T01:27:54;99853.53;;;10.80;47.19
26859;BME280;14429;48.346;16.338;2023-03-20T01:30:21;99852.78;;;10.90;47.17
26859;BME280;14429;48.346;16.338;2023-03-20T01:32:49;99845.63;;;11.66;44.41
26859;BME280;14429;48.346;16.338;2023-03-20T01:35:16;99851.03;;;11.89;43.77
26859;BME280;14429;48.346;16.338;2023-03-20T01:37:42;99852.06;;;11.99;43.58
26859;BME280;14429;48.346;16.338;2023-03-20T01:40:18;99849.06;;;12.03;43.43
26859;BME280;14429;48.346;16.338;2023-03-20T01:42:46;99852.38;;;12.07;43.32
26859;BME280;14429;48.346;16.338;2023-03-20T01:45:15;99863.94;;;11.95;43.52
26859;BME280;14429;48.346;16.338;2023-03-20T01:47:41;99853.13;;;12.09;43.32
26859;BME280;14429;48.346;16.338;2023-03-20T01:50:30;99852.03;;;12.11;43.18
26859;BME280;14429;48.346;16.338;2023-03-20T01:53:05;99857.06;;;12.15;42.93
26859;BME280;14429;48.346;16.338;2023-03-20T01:55:31;99855.66;;;12.22;42.88
26859;BME280;14429;48.346;16.338;2023-03-20T01:57:59;99849.53;;;12.20;42.94
26859;BME280;14429;48.346;16.338;2023-03-20T02:00:26;99853.31;;;12.18;42.90
26859;BME280;14429;48.346;16.338;2023-03-20T02:02:52;99855.34;;;12.14;43.02
26859;BME280;14429;48.346;16.338;2023-03-20T02:05:19;99853.41;;;11.57;44.18
26859;BME280;14429;48.346;16.338;2023-03-20T02:07:53;99867.06;;;11.89;43.68
26859;BME280;14429;48.346;16.338;2023-03-20T02:10:20;99871.03;;;10.84;48.03
26859;BME280;14429;48.346;16.338;2023-03-20T02:12:47;99869.38;;;11.20;45.50
26859;BME280;14429;48.346;16.338;2023-03-20T02:15:13;99867.94;;;11.53;44.74
26859;BME280;14429;48.346;16.338;2023-03-20T02:17:41;99870.16;;;11.83;43.92
26859;BME280;14429;48.346;16.338;2023-03-20T02:20:13;99856.38;;;11.89;43.58
26859;BME280;14429;48.346;16.338;2023-03-20T02:29:05;99863.28;;;11.91;43.54
26859;BME280;14429;48.346;16.338;2023-03-20T02:32:07;99870.53;;;12.02;43.27
26859;BME280;14429;48.346;16.338;2023-03-20T02:34:59;99867.66;;;12.05;43.09
26859;BME280;14429;48.346;16.338;2023-03-20T02:37:46;99865.97;;;12.04;43.17
26859;BME280;14429;48.346;16.338;2023-03-20T02:40:24;99875.56;;;12.06;43.20
26859;BME280;14429;48.346;16.338;2023-03-20T02:42:57;99870.34;;;12.05;43.22
26859;BME280;14429;48.346;16.338;2023-03-20T02:45:28;99870.22;;;12.06;43.07
26859;BME280;14429;48.346;16.338;2023-03-20T02:48:03;99878.13;;;12.08;43.13
26859;BME280;14429;48.346;16.338;2023-03-20T02:50:36;99878.78;;;11.99;43.28
26859;BME280;14429;48.346;16.338;2023-03-20T02:53:16;99879.31;;;12.04;43.16
26859;BME280;14429;48.346;16.338;2023-03-20T02:55:47;99876.44;;;12.07;43.10
26859;BME280;14429;48.346;16.338;2023-03-20T02:58:20;99878.13;;;12.08;43.11
26859;BME280;14429;48.346;16.338;2023-03-20T03:00:50;99880.06;;;12.06;43.17
26859;BME280;14429;48.346;16.338;2023-03-20T03:03:23;99881.13;;;11.91;43.25
26859;BME280;14429;48.346;16.338;2023-03-20T03:05:54;99876.88;;;12.01;42.97
26859;BME280;14429;48.346;16.338;2023-03-20T03:08:25;99879.84;;;12.09;43.21
26859;BME280;14429;48.346;16.338;2023-03-20T03:10:57;99874.75;;;11.81;43.25
26859;BME280;14429;48.346;16.338;2023-03-20T03:13:26;99879.66;;;11.87;43.62
26859;BME280;14429;48.346;16.338;2023-03-20T03:15:55;99879.22;;;11.93;43.32
26859;BME280;14429;48.346;16.338;2023-03-20T03:18:24;99873.75;;;11.94;43.38
26859;BME280;14429;48.346;16.338;2023-03-20T03:20:54;99879.22;;;11.93;43.40
26859;BME280;14429;48.346;16.338;2023-03-20T03:23:25;99885.41;;;12.06;42.98
26859;BME280;14429;48.346;16.338;2023-03-20T03:25:52;99886.16;;;12.08;42.86
26859;BME280;14429;48.346;16.338;2023-03-20T03:28:25;99884.66;;;12.04;43.05
26859;BME280;14429;48.346;16.338;2023-03-20T03:30:53;99885.19;;;12.09;43.06
26859;BME280;14429;48.346;16.338;2023-03-20T03:33:21;99885.19;;;12.09;43.05
26859;BME280;14429;48.346;16.338;2023-03-20T03:35:48;99877.94;;;12.11;42.87
26859;BME280;14429;48.346;16.338;2023-03-20T03:38:27;99876.94;;;12.12;43.14
26859;BME280;14429;48.346;16.338;2023-03-20T03:41:05;99874.50;;;12.09;42.93
26859;BME280;14429;48.346;16.338;2023-03-20T03:43:40;99881.53;;;12.10;42.96
26859;BME280;14429;48.346;16.338;2023-03-20T03:46:11;99882.84;;;12.04;43.07
26859;BME280;14429;48.346;16.338;2023-03-20T03:48:42;99878.88;;;12.10;42.95
26859;BME280;14429;48.346;16.338;2023-03-20T03:51:11;99886.16;;;12.08;42.95
26859;BME280;14429;48.346;16.338;2023-03-20T03:53:45;99888.81;;;12.08;42.81
26859;BME280;14429;48.346;16.338;2023-03-20T03:56:12;99884.03;;;12.00;43.03
26859;BME280;14429;48.346;16.338;2023-03-20T03:58:41;99883.19;;;12.00;43.18
26859;BME280;14429;48.346;16.338;2023-03-20T04:01:08;99881.22;;;12.02;42.98
26859;BME280;14429;48.346;16.338;2023-03-20T04:03:37;99878.34;;;12.05;42.92
26859;BME280;14429;48.346;16.338;2023-03-20T04:06:05;99884.88;;;12.01;42.99
26859;BME280;14429;48.346;16.338;2023-03-20T04:08:33;99877.06;;;11.98;43.09
26859;BME280;14429;48.346;16.338;2023-03-20T04:11:00;99884.66;;;12.04;43.05
26859;BME280;14429;48.346;16.338;2023-03-20T04:13:25;99885.50;;;12.04;42.98
26859;BME280;14429;48.346;16.338;2023-03-20T04:15:51;99881.44;;;11.99;43.20
26859;BME280;14429;48.346;16.338;2023-03-20T04:18:17;99881.22;;;12.02;43.08
26859;BME280;14429;48.346;16.338;2023-03-20T04:20:43;99883.81;;;12.03;42.97
26859;BME280;14429;48.346;16.338;2023-03-20T04:23:09;99891.91;;;12.02;43.01
26859;BME280;14429;48.346;16.338;2023-03-20T04:25:34;99882.22;;;12.01;42.97
26859;BME280;14429;48.346;16.338;2023-03-20T04:28:01;99881.34;;;12.00;43.02
26859;BME280;14429;48.346;16.338;2023-03-20T04:30:27;99883.81;;;12.03;43.01
26859;BME280;14429;48.346;16.338;2023-03-20T04:32:52;99888.81;;;12.08;42.78
26859;BME280;14429;48.346;16.338;2023-03-20T04:35:18;99877.38;;;12.06;42.88
26859;BME280;14429;48.346;16.338;2023-03-20T04:37:43;99882.22;;;12.01;42.98
26859;BME280;14429;48.346;16.338;2023-03-20T04:40:09;99881.91;;;11.93;43.19
26859;BME280;14429;48.346;16.338;2023-03-20T04:42:35;99892.28;;;11.60;43.93
26859;BME280;14429;48.346;16.338;2023-03-20T04:45:03;99891.53;;;11.46;44.62
26859;BME280;14429;48.346;16.338;2023-03-20T04:47:28;99886.63;;;11.77;43.54
26859;BME280;14429;48.346;16.338;2023-03-20T04:49:54;99885.44;;;11.81;43.40
26859;BME280;14429;48.346;16.338;2023-03-20T04:52:19;99882.25;;;11.88;43.36
26859;BME280;14429;48.346;16.338;2023-03-20T04:54:44;99888.44;;;11.89;43.35
26859;BME280;14429;48.346;16.338;2023-03-20T04:57:10;99891.63;;;11.94;43.23
26859;BME280;14429;48.346;16.338;2023-03-20T04:59:35;99890.13;;;11.90;43.26
26859;BME280;14429;48.346;16.338;2023-03-20T05:02:03;99886.72;;;11.88;43.41
26859;BME280;14429;48.346;16.338;2023-03-20T05:04:28;99900.81;;;11.90;43.24
26859;BME280;14429;48.346;16.338;2023-03-20T05:06:54;99897.63;;;11.85;43.33
26859;BME280;14429;48.346;16.338;2023-03-20T05:09:19;99902.97;;;11.85;43.38
26859;BME280;14429;48.346;16.338;2023-03-20T05:11:45;99905.72;;;11.84;43.47
26859;BME280;14429;48.346;16.338;2023-03-20T05:14:10;99906.56;;;11.84;43.41
26859;BME280;14429;48.346;16.338;2023-03-20T05:16:35;99912.56;;;11.75;43.54
26859;BME280;14429;48.346;16.338;2023-03-20T05:19:02;99919.31;;;11.68;43.70
26859;BME280;14429;48.346;16.338;2023-03-20T05:21:28;99925.41;;;11.58;44.15
26859;BME280;14429;48.346;16.338;2023-03-20T05:23:53;99936.63;;;10.60;47.94
26859;BME280;14429;48.346;16.338;2023-03-20T05:26:19;99940.56;;;10.55;48.00
26859;BME280;14429;48.346;16.338;2023-03-20T05:28:44;99945.59;;;10.06;49.64
26859;BME280;14429;48.346;16.338;2023-03-20T05:31:09;99942.91;;;10.59;47.17
26859;BME280;14429;48.346;16.338;2023-03-20T05:33:35;99942.75;;;11.01;45.77
26859;BME280;14429;48.346;16.338;2023-03-20T05:36:02;99945.28;;;11.28;44.94
26859;BME280;14429;48.346;16.338;2023-03-20T05:38:27;99950.19;;;11.48;44.45
26859;BME280;14429;48.346;16.338;2023-03-20T05:40:56;99957.22;;;11.49;44.29
26859;BME280;14429;48.346;16.338;2023-03-20T05:43:22;99953.38;;;11.53;44.33
26859;BME280;14429;48.346;16.338;2023-03-20T05:45:47;99961.50;;;11.63;44.07
26859;BME280;14429;48.346;16.338;2023-03-20T05:48:13;99962.25;;;11.65;43.99
26859;BME280;14429;48.346;16.338;2023-03-20T05:50:38;99969.13;;;11.69;43.88
26859;BME280;14429;48.346;16.338;2023-03-20T05:53:05;99970.50;;;11.62;44.10
26859;BME280;14429;48.346;16.338;2023-03-20T05:55:30;99964.19;;;11.63;44.04
26859;BME280;14429;48.346;16.338;2023-03-20T05:57:56;99970.59;;;11.35;44.89
26859;BME280;14429;48.346;16.338;2023-03-20T06:00:22;99985.28;;;11.42;44.98
26859;BME280;14429;48.346;16.338;2023-03-20T06:02:48;99980.28;;;11.50;44.43
26859;BME280;14429;48.346;16.338;2023-03-20T06:05:13;99974.81;;;11.39;45.54
26859;BME280;14429;48.346;16.338;2023-03-20T06:07:38;99975.59;;;11.53;44.24
26859;BME280;14429;48.346;16.338;2023-03-20T06:10:06;99978.72;;;11.59;44.12
26859;BME280;14429;48.346;16.338;2023-03-20T06:12:32;99988.22;;;11.63;44.22
26859;BME280;14429;48.346;16.338;2023-03-20T06:14:58;99984.56;;;11.52;44.78
26859;BME280;14429;48.346;16.338;2023-03-20T06:17:23;99988.41;;;10.96;48.96
26859;BME280;14429;48.346;16.338;2023-03-20T06:19:48;99994.34;;;10.61;50.25
26859;BME280;14429;48.346;16.338;2023-03-20T06:22:14;99992.06;;;10.55;50.03
26859;BME280;14429;48.346;16.338;2023-03-20T06:24:39;100002.00;;;10.26;51.90
26859;BME280;14429;48.346;16.338;2023-03-20T06:27:06;100000.41;;;9.81;54.80
26859;BME280;14429;48.346;16.338;2023-03-20T06:29:33;99994.38;;;10.20;51.36
26859;BME280;14429;48.346;16.338;2023-03-20T06:31:59;99991.31;;;10.40;50.43
26859;BME280;14429;48.346;16.338;2023-03-20T06:34:24;99987.63;;;10.28;52.17
26859;BME280;14429;48.346;16.338;2023-03-20T06:36:50;99993.78;;;10.82;47.12
26859;BME280;14429;48.346;16.338;2023-03-20T06:39:15;99979.38;;;11.37;45.16
26859;BME280;14429;48.346;16.338;2023-03-20T06:41:40;99985.44;;;11.65;44.31
26859;BME280;14429;48.346;16.338;2023-03-20T06:44:07;99988.25;;;11.88;43.65
26859;BME280;14429;48.346;16.338;2023-03-20T06:46:33;99981.94;;;12.01;43.26
26859;BME280;14429;48.346;16.338;2023-03-20T06:48:59;99991.00;;;12.23;42.78
26859;BME280;14429;48.346;16.338;2023-03-20T06:51:24;99991.22;;;12.20;42.79
26859;BME280;14429;48.346;16.338;2023-03-20T06:53:50;99989.72;;;12.16;43.95
26859;BME280;14429;48.346;16.338;2023-03-20T06:56:15;99986.75;;;12.09;43.27
26859;BME280;14429;48.346;16.338;2023-03-20T06:58:40;99985.22;;;12.17;42.94
26859;BME280;14429;48.346;16.338;2023-03-20T07:01:12;99976.88;;;12.34;45.73
26859;BME280;14429;48.346;16.338;2023-03-20T07:03:38;99985.38;;;12.63;46.43
26859;BME280;14429;48.346;16.338;2023-03-20T07:06:04;99985.59;;;12.60;42.29
26859;BME280;14429;48.346;16.338;2023-03-20T07:08:29;99987.94;;;12.65;43.27
26859;BME280;14429;48.346;16.338;2023-03-20T07:10:55;99983.69;;;12.50;42.22
26859;BME280;14429;48.346;16.338;2023-03-20T07:13:20;99991.63;;;12.39;42.76
26859;BME280;14429;48.346;16.338;2023-03-20T07:15:46;99990.69;;;12.40;42.38
26859;BME280;14429;48.346;16.338;2023-03-20T07:18:12;99989.38;;;12.45;43.53
26859;BME280;14429;48.346;16.338;2023-03-20T07:20:38;99991.38;;;12.54;44.65
26859;BME280;14429;48.346;16.338;2023-03-20T07:23:03;99990.09;;;12.60;42.44
26859;BME280;14429;48.346;16.338;2023-03-20T07:25:29;99992.00;;;12.58;42.32
26859;BME280;14429;48.346;16.338;2023-03-20T07:27:54;99993.97;;;12.56;42.30
26859;BME280;14429;48.346;16.338;2023-03-20T07:30:20;99999.50;;;12.65;43.39
26859;BME280;14429;48.346;16.338;2023-03-20T07:32:45;100001.66;;;12.72;42.76
26859;BME280;14429;48.346;16.338;2023-03-20T07:35:12;100007.28;;;12.80;42.25
26859;BME280;14429;48.346;16.338;2023-03-20T07:37:37;100000.44;;;13.12;47.24
26859;BME280;14429;48.346;16.338;2023-03-20T07:40:04;99997.22;;;13.07;47.16
26859;BME280;14429;48.346;16.338;2023-03-20T07:42:30;99999.75;;;13.20;46.41
26859;BME280;14429;48.346;16.338;2023-03-20T07:44:55;99996.91;;;13.34;46.72
26859;BME280;14429;48.346;16.338;2023-03-20T07:47:21;99991.88;;;13.07;41.80
26859;BME280;14429;48.346;16.338;2023-03-20T07:49:46;99993.91;;;12.93;41.88
26859;BME280;14429;48.346;16.338;2023-03-20T07:52:13;99994.69;;;13.28;47.75
26859;BME280;14429;48.346;16.338;2023-03-20T07:54:38;99995.94;;;13.35;46.07
26859;BME280;14429;48.346;16.338;2023-03-20T07:57:04;99992.00;;;13.28;46.20
26859;BME280;14429;48.346;16.338;2023-03-20T07:59:29;99993.81;;;13.51;50.28
26859;BME280;14429;48.346;16.338;2023-03-20T08:01:55;99997.88;;;13.33;42.24
26859;BME280;14429;48.346;16.338;2023-03-20T08:04:20;100001.22;;;13.47;46.59
26859;BME280;14429;48.346;16.338;2023-03-20T08:06:46;99996.38;;;13.86;48.78
26859;BME280;14429;48.346;16.338;2023-03-20T08:09:12;99997.22;;;13.53;42.49
26859;BME280;14429;48.346;16.338;2023-03-20T08:11:38;99994.50;;;13.42;41.50
26859;BME280;14429;48.346;16.338;2023-03-20T08:14:03;99995.97;;;13.80;47.25
26859;BME280;14429;48.346;16.338;2023-03-20T08:16:29;99993.75;;;13.97;45.43
26859;BME280;14429;48.346;16.338;2023-03-20T08:18:54;99992.56;;;14.12;50.84
26859;BME280;14429;48.346;16.338;2023-03-20T08:21:20;99988.13;;;14.00;48.10
26859;BME280;14429;48.346;16.338;2023-03-20T08:23:45;99988.16;;;14.43;49.25
26859;BME280;14429;48.346;16.338;2023-03-20T08:26:12;99992.91;;;13.73;43.58
26859;BME280;14429;48.346;16.338;2023-03-20T08:28:37;99982.69;;;14.12;51.48
26859;BME280;14429;48.346;16.338;2023-03-20T08:31:07;99988.31;;;14.53;47.17
26859;BME280;14429;48.346;16.338;2023-03-20T08:33:32;99984.75;;;14.52;46.62
26859;BME280;14429;48.346;16.338;2023-03-20T08:35:58;99989.47;;;13.61;42.98
26859;BME280;14429;48.346;16.338;2023-03-20T08:38:23;99993.66;;;13.75;43.35
26859;BME280;14429;48.346;16.338;2023-03-20T08:40:49;99988.66;;;14.16;44.82
26859;BME280;14429;48.346;16.338;2023-03-20T08:43:16;99983.91;;;14.30;49.58
26859;BME280;14429;48.346;16.338;2023-03-20T08:45:42;99986.06;;;14.14;50.16
26859;BME280;14429;48.346;16.338;2023-03-20T08:48:07;99986.03;;;13.93;44.59
26859;BME280;14429;48.346;16.338;2023-03-20T08:50:33;99987.69;;;14.28;51.92
26859;BME280;14429;48.346;16.338;2023-03-20T08:52:58;99992.25;;;13.93;42.67
26859;BME280;14429;48.346;16.338;2023-03-20T08:55:24;99991.63;;;13.90;44.12
26859;BME280;14429;48.346;16.338;2023-03-20T08:57:49;99992.06;;;14.50;51.99
26859;BME280;14429;48.346;16.338;2023-03-20T09:00:17;100003.38;;;13.76;43.90
26859;BME280;14429;48.346;16.338;2023-03-20T09:02:42;99999.59;;;13.34;43.79
26859;BME280;14429;48.346;16.338;2023-03-20T09:05:09;100002.50;;;13.31;50.19
26859;BME280;14429;48.346;16.338;2023-03-20T09:07:34;99999.16;;;13.51;44.86
26859;BME280;14429;48.346;16.338;2023-03-20T09:10:00;99997.50;;;13.61;45.40
26859;BME280;14429;48.346;16.338;2023-03-20T09:12:25;99995.44;;;13.30;44.18
26859;BME280;14429;48.346;16.338;2023-03-20T09:14:51;99991.88;;;13.53;49.55
26859;BME280;14429;48.346;16.338;2023-03-20T09:17:17;100002.22;;;13.23;44.08
26859;BME280;14429;48.346;16.338;2023-03-20T09:19:43;99986.03;;;13.02;44.28
26859;BME280;14429;48.346;16.338;2023-03-20T09:22:10;99991.66;;;13.10;44.49
26859;BME280;14429;48.346;16.338;2023-03-20T09:24:36;99994.28;;;12.99;44.52
26859;BME280;14429;48.346;16.338;2023-03-20T09:27:02;99994.53;;;12.96;44.71
26859;BME280;14429;48.346;16.338;2023-03-20T09:29:27;99991.22;;;13.16;44.65
26859;BME280;14429;48.346;16.338;2023-03-20T09:31:53;99987.78;;;13.14;44.33
26859;BME280;14429;48.346;16.338;2023-03-20T09:34:20;99988.03;;;13.11;44.33
26859;BME280;14429;48.346;16.338;2023-03-20T09:36:45;99982.69;;;13.11;44.16
26859;BME280;14429;48.346;16.338;2023-03-20T09:39:11;99992.84;;;13.29;44.96
26859;BME280;14429;48.346;16.338;2023-03-20T09:41:36;99988.38;;;13.29;46.62
26859;BME280;14429;48.346;16.338;2023-03-20T09:44:09;99980.28;;;13.19;44.26
26859;BME280;14429;48.346;16.338;2023-03-20T09:46:49;99980.00;;;13.11;44.56
26859;BME280;14429;48.346;16.338;2023-03-20T09:49:28;99981.75;;;13.22;44.42
26859;BME280;14429;48.346;16.338;2023-03-20T09:51:59;99973.28;;;13.73;49.81
26859;BME280;14429;48.346;16.338;2023-03-20T09:54:27;99978.03;;;13.70;49.10
26859;BME280;14429;48.346;16.338;2023-03-20T09:56:55;99963.69;;;13.71;53.96
26859;BME280;14429;48.346;16.338;2023-03-20T09:59:22;99969.25;;;13.57;46.24
26859;BME280;14429;48.346;16.338;2023-03-20T10:01:51;99976.44;;;13.56;46.89
26859;BME280;14429;48.346;16.338;2023-03-20T10:04:18;99965.75;;;13.44;46.50
26859;BME280;14429;48.346;16.338;2023-03-20T10:06:45;99967.84;;;13.41;46.32
26859;BME280;14429;48.346;16.338;2023-03-20T10:09:15;99964.69;;;13.47;46.16
26859;BME280;14429;48.346;16.338;2023-03-20T10:11:53;99967.75;;;13.53;46.24
26859;BME280;14429;48.346;16.338;2023-03-20T10:14:24;99957.38;;;13.82;46.67
26859;BME280;14429;48.346;16.338;2023-03-20T10:17:08;99958.56;;;13.68;46.47
26859;BME280;14429;48.346;16.338;2023-03-20T10:19:42;99968.34;;;13.46;46.03
26859;BME280;14429;48.346;16.338;2023-03-20T10:22:16;99946.38;;;13.30;48.14
26859;BME280;14429;48.346;16.338;2023-03-20T10:24:48;99945.19;;;13.78;45.88
26859;BME280;14429;48.346;16.338;2023-03-20T10:27:21;99936.94;;;14.68;55.65
26859;BME280;14429;48.346;16.338;2023-03-20T10:29:53;99937.69;;;14.27;45.04
26859;BME280;14429;48.346;16.338;2023-03-20T10:32:25;99932.34;;;14.16;52.44
26859;BME280;14429;48.346;16.338;2023-03-20T10:35:03;99931.81;;;15.37;53.01
26859;BME280;14429;48.346;16.338;2023-03-20T10:37:43;99924.84;;;15.04;48.60
26859;BME280;14429;48.346;16.338;2023-03-20T10:40:24;99917.38;;;14.77;46.71
26859;BME280;14429;48.346;16.338;2023-03-20T10:42:51;99917.56;;;14.43;44.76
26859;BME280;14429;48.346;16.338;2023-03-20T10:45:28;99916.13;;;14.91;44.15
26859;BME280;14429;48.346;16.338;2023-03-20T10:47:56;99911.63;;;15.23;42.81
26859;BME280;14429;48.346;16.338;2023-03-20T10:50:27;99907.34;;;13.94;44.28
26859;BME280;14429;48.346;16.338;2023-03-20T10:52:55;99908.13;;;13.73;45.42
26859;BME280;14429;48.346;16.338;2023-03-20T10:55:23;99893.28;;;14.44;46.92
26859;BME280;14429;48.346;16.338;2023-03-20T10:57:55;99903.25;;;13.67;48.89
26859;BME280;14429;48.346;16.338;2023-03-20T11:00:23;99898.53;;;13.36;46.20
26859;BME280;14429;48.346;16.338;2023-03-20T11:02:50;99891.44;;;14.97;49.68
26859;BME280;14429;48.346;16.338;2023-03-20T11:05:22;99888.69;;;15.19;45.77
26859;BME280;14429;48.346;16.338;2023-03-20T11:07:50;99889.00;;;14.94;43.47
26859;BME280;14429;48.346;16.338;2023-03-20T11:10:17;99880.47;;;14.48;44.65
26859;BME280;14429;48.346;16.338;2023-03-20T11:12:43;99875.94;;;14.48;46.78
26859;BME280;14429;48.346;16.338;2023-03-20T11:15:23;99875.19;;;15.30;51.80
26859;BME280;14429;48.346;16.338;2023-03-20T11:17:55;99868.00;;;14.99;46.19
26859;BME280;14429;48.346;16.338;2023-03-20T11:20:21;99880.41;;;15.11;47.64
26859;BME280;14429;48.346;16.338;2023-03-20T11:22:48;99862.72;;;14.67;45.52
26859;BME280;14429;48.346;16.338;2023-03-20T11:25:26;99867.97;;;14.27;43.82
26859;BME280;14429;48.346;16.338;2023-03-20T11:27:53;99864.78;;;13.89;45.36
26859;BME280;14429;48.346;16.338;2023-03-20T11:30:19;99860.78;;;13.95;44.84
26859;BME280;14429;48.346;16.338;2023-03-20T11:32:46;99869.34;;;14.63;53.39
26859;BME280;14429;48.346;16.338;2023-03-20T11:35:19;99863.44;;;14.27;50.37
26859;BME280;14429;48.346;16.338;2023-03-20T11:37:46;99872.16;;;13.43;45.63
26859;BME280;14429;48.346;16.338;2023-03-20T11:40:14;99875.69;;;13.54;46.98
26859;BME280;14429;48.346;16.338;2023-03-20T11:42:51;99866.47;;;13.79;46.13
26859;BME280;14429;48.346;16.338;2023-03-20T11:45:17;99861.38;;;14.20;48.15
26859;BME280;14429;48.346;16.338;2023-03-20T11:47:47;99863.19;;;14.82;48.51
26859;BME280;14429;48.346;16.338;2023-03-20T11:50:25;99865.63;;;15.37;45.23
26859;BME280;14429;48.346;16.338;2023-03-20T11:52:52;99860.72;;;15.62;44.63
26859;BME280;14429;48.346;16.338;2023-03-20T11:55:24;99862.50;;;15.72;44.19
26859;BME280;14429;48.346;16.338;2023-03-20T11:57:55;99866.97;;;15.91;48.80
26859;BME280;14429;48.346;16.338;2023-03-20T12:00:23;99861.94;;;15.78;44.48
26859;BME280;14429;48.346;16.338;2023-03-20T12:02:49;99865.88;;;15.74;43.68
26859;BME280;14429;48.346;16.338;2023-03-20T12:05:33;99866.44;;;15.68;43.64
26859;BME280;14429;48.346;16.338;2023-03-20T12:08:01;99867.69;;;15.64;43.81
26859;BME280;14429;48.346;16.338;2023-03-20T12:10:31;99860.84;;;15.60;43.74
26859;BME280;14429;48.346;16.338;2023-03-20T12:13:02;99865.50;;;15.58;44.52
26859;BME280;14429;48.346;16.338;2023-03-20T12:15:32;99858.63;;;15.65;45.63
26859;BME280;14429;48.346;16.338;2023-03-20T12:18:02;99861.56;;;15.62;44.08
26859;BME280;14429;48.346;16.338;2023-03-20T12:20:33;99849.41;;;15.67;44.44
26859;BME280;14429;48.346;16.338;2023-03-20T12:23:10;99857.00;;;15.53;44.05
26859;BME280;14429;48.346;16.338;2023-03-20T12:25:41;99854.75;;;15.58;44.02
26859;BME280;14429;48.346;16.338;2023-03-20T12:28:16;99848.94;;;15.53;43.89
26859;BME280;14429;48.346;16.338;2023-03-20T12:30:53;99849.91;;;15.52;45.01
26859;BME280;14429;48.346;16.338;2023-03-20T12:33:33;99846.56;;;15.39;44.58
26859;BME280;14429;48.346;16.338;2023-03-20T12:36:00;99852.94;;;15.38;44.33
26859;BME280;14429;48.346;16.338;2023-03-20T12:38:27;99852.66;;;15.41;44.18
26859;BME280;14429;48.346;16.338;2023-03-20T12:40:58;99850.50;;;15.36;44.56
26859;BME280;14429;48.346;16.338;2023-03-20T12:43:29;99852.59;;;15.32;44.95
26859;BME280;14429;48.346;16.338;2023-03-20T12:46:06;99846.38;;;15.32;44.75
26859;BME280;14429;48.346;16.338;2023-03-20T12:48:39;99858.56;;;15.36;44.46
26859;BME280;14429;48.346;16.338;2023-03-20T12:51:15;99849.97;;;15.41;49.59
26859;BME280;14429;48.346;16.338;2023-03-20T12:53:51;99859.28;;;15.37;45.23
26859;BME280;14429;48.346;16.338;2023-03-20T12:56:27;99852.59;;;15.32;44.29
26859;BME280;14429;48.346;16.338;2023-03-20T12:59:02;99851.34;;;15.36;44.63
26859;BME280;14429;48.346;16.338;2023-03-20T13:01:36;99848.91;;;15.33;44.78
26859;BME280;14429;48.346;16.338;2023-03-20T13:04:18;99845.72;;;15.39;50.44